createdAt,value
2023-03-06T07:12:22.692Z,98974.94
2023-03-06T07:14:56.477Z,98972.59
2023-03-06T07:17:24.511Z,98974.63
2023-03-06T07:19:52.333Z,98971.77
2023-03-06T07:22:20.242Z,98977.08
2023-03-06T07:24:47.972Z,98975.91
2023-03-06T07:27:15.924Z,98977.66
2023-03-06T07:29:44.969Z,98973.95
2023-03-06T07:32:12.728Z,98977.90
2023-03-06T07:34:41.431Z,98979.15
2023-03-06T07:37:09.077Z,98973.06
2023-03-06T07:39:36.741Z,98971.75
2023-03-06T07:42:08.011Z,98979.62
2023-03-06T07:44:37.717Z,98976.79
2023-03-06T07:47:06.385Z,98976.51
2023-03-06T07:49:34.963Z,98975.89
2023-03-06T07:52:02.874Z,98979.23
2023-03-06T07:54:35.525Z,98980.65
2023-03-06T07:57:03.601Z,98979.83
2023-03-06T07:59:31.787Z,98981.23
2023-03-06T08:01:59.378Z,98982.46
2023-03-06T08:04:29.067Z,98980.98
2023-03-06T08:07:03.716Z,98979.14
2023-03-06T08:09:33.512Z,98978.52
2023-03-06T08:12:01.482Z,98981.96
2023-03-06T08:14:29.179Z,98978.92
2023-03-06T08:16:57.217Z,98980.80
2023-03-06T08:19:25.190Z,98979.80
2023-03-06T08:21:53.052Z,98976.43
2023-03-06T08:24:20.942Z,98974.41
2023-03-06T08:26:48.695Z,98980.73
2023-03-06T08:29:16.402Z,98975.98
2023-03-06T08:31:46.930Z,98978.02
2023-03-06T08:34:20.708Z,98975.64
2023-03-06T08:36:48.793Z,98978.38
2023-03-06T08:39:17.139Z,98978.88
2023-03-06T08:41:45.980Z,98977.47
2023-03-06T08:44:14.410Z,98976.73
2023-03-06T08:46:46.915Z,98977.69
2023-03-06T08:49:18.893Z,98973.13
2023-03-06T08:51:48.087Z,98968.69
2023-03-06T08:54:18.850Z,98964.77
2023-03-06T08:56:46.900Z,98966.72
2023-03-06T08:59:14.687Z,98966.97
2023-03-06T09:01:42.542Z,98966.05
2023-03-06T09:04:13.260Z,98966.20
2023-03-06T09:06:44.036Z,98964.14
2023-03-06T09:09:13.026Z,98962.67
2023-03-06T09:11:40.778Z,98962.33
2023-03-06T09:14:08.561Z,98961.73
2023-03-06T09:16:36.336Z,98956.52
2023-03-06T09:19:04.560Z,98959.60
2023-03-06T09:21:32.416Z,98954.90
2023-03-06T09:24:00.605Z,98953.49
2023-03-06T09:26:43.472Z,98954.08
2023-03-06T09:29:16.214Z,98946.77
2023-03-06T09:31:45.263Z,98944.13
2023-03-06T09:34:12.978Z,98942.83
2023-03-06T09:36:55.535Z,98941.91
2023-03-06T09:39:27.548Z,98935.98
2023-03-06T09:41:59.474Z,98939.90
2023-03-06T09:44:39.266Z,98935.92
2023-03-06T09:47:25.696Z,98926.36
2023-03-06T09:50:05.448Z,98927.23
2023-03-06T09:52:36.040Z,98929.43
2023-03-06T09:55:10.198Z,98928.63
2023-03-06T09:57:45.439Z,98926.89
2023-03-06T10:00:24.494Z,98926.77
2023-03-06T10:03:16.058Z,98927.48
2023-03-06T10:06:10.376Z,98927.86
2023-03-06T10:08:53.733Z,98926.95
2023-03-06T10:11:33.313Z,98922.88
2023-03-06T10:14:39.632Z,98917.88
2023-03-06T10:17:17.004Z,98911.14
2023-03-06T10:19:48.567Z,98910.16
2023-03-06T10:22:38.415Z,98914.00
2023-03-06T10:25:25.579Z,98909.86
2023-03-06T10:27:59.637Z,98904.80
2023-03-06T10:30:49.542Z,98904.09
2023-03-06T10:33:45.179Z,98893.79
2023-03-06T10:36:20.096Z,98896.13
2023-03-06T10:38:49.510Z,98898.33
2023-03-06T10:41:38.436Z,98893.53
2023-03-06T10:44:13.564Z,98896.84
2023-03-06T10:46:47.610Z,98895.69
2023-03-06T10:49:33.796Z,98889.98
2023-03-06T10:52:21.357Z,98886.84
2023-03-06T10:54:49.109Z,98880.86
2023-03-06T10:57:32.822Z,98879.55
2023-03-06T11:00:24.705Z,98876.86
2023-03-06T11:03:21.669Z,98878.92
2023-03-06T11:06:13.606Z,98877.23
2023-03-06T11:08:44.147Z,98875.48
2023-03-06T11:11:36.367Z,98873.83
2023-03-06T11:14:16.822Z,98871.79
2023-03-06T11:16:53.160Z,98871.64
2023-03-06T11:19:29.271Z,98869.85
2023-03-06T11:22:18.817Z,98867.27
2023-03-06T11:24:50.454Z,98869.48
2023-03-06T11:27:30.849Z,98870.88
2023-03-06T11:30:00.525Z,98867.41
2023-03-06T11:32:35.044Z,98865.58
2023-03-06T11:35:12.074Z,98862.66
2023-03-06T11:37:56.857Z,98858.77
2023-03-06T11:40:28.477Z,98856.35
2023-03-06T11:43:17.366Z,98855.42
2023-03-06T11:46:08.848Z,98854.35
2023-03-06T11:48:45.243Z,98851.90
2023-03-06T11:51:21.929Z,98853.27
2023-03-06T11:53:49.870Z,98848.65
2023-03-06T11:56:20.287Z,98847.41
2023-03-06T11:59:10.176Z,98843.70
2023-03-06T12:01:46.839Z,98842.28
2023-03-06T12:04:30.388Z,98840.14
2023-03-06T12:07:29.352Z,98840.35
2023-03-06T12:10:09.052Z,98835.65
2023-03-06T12:13:07.389Z,98831.23
2023-03-06T12:16:07.786Z,98834.73
2023-03-06T12:19:10.202Z,98833.81
2023-03-06T12:22:01.204Z,98836.91
2023-03-06T12:24:55.774Z,98834.94
2023-03-06T12:27:45.755Z,98837.86
2023-03-06T12:30:48.298Z,98833.20
2023-03-06T12:33:35.437Z,98836.54
2023-03-06T12:36:34.822Z,98840.10
2023-03-06T12:39:24.617Z,98843.12
2023-03-06T12:42:23.661Z,98840.95
2023-03-06T12:45:05.917Z,98848.49
2023-03-06T12:47:45.729Z,98845.10
2023-03-06T12:50:24.389Z,98846.65
2023-03-06T12:52:56.893Z,98846.76
2023-03-06T12:55:29.347Z,98849.65
2023-03-06T12:58:34.130Z,98846.92
2023-03-06T13:01:24.440Z,98848.81
2023-03-06T13:04:01.450Z,98844.69
2023-03-06T13:07:02.677Z,98843.89
2023-03-06T13:09:51.307Z,98845.38
2023-03-06T13:12:22.897Z,98838.05
2023-03-06T13:15:05.265Z,98837.40
2023-03-06T13:17:40.378Z,98839.35
2023-03-06T13:20:49.269Z,98838.92
2023-03-06T13:23:33.958Z,98836.52
2023-03-06T13:26:20.103Z,98835.45
2023-03-06T13:28:51.201Z,98836.21
2023-03-06T13:31:48.926Z,98835.35
2023-03-06T13:34:40.338Z,98834.45
2023-03-06T13:37:36.909Z,98835.55
2023-03-06T13:40:05.054Z,98831.49
2023-03-06T13:42:53.875Z,98828.63
2023-03-06T13:45:39.138Z,98829.92
2023-03-06T13:48:33.642Z,98832.73
2023-03-06T13:51:13.931Z,98835.30
2023-03-06T13:54:04.388Z,98830.50
2023-03-06T13:56:53.874Z,98834.31
2023-03-06T13:59:37.110Z,98832.95
2023-03-06T14:02:04.939Z,98827.55
2023-03-06T14:05:05.623Z,98828.92
2023-03-06T14:07:40.452Z,98827.06
2023-03-06T14:10:08.275Z,98828.14
2023-03-06T14:12:40.662Z,98827.83
2023-03-06T14:15:22.511Z,98828.86
2023-03-06T14:17:59.109Z,98827.70
2023-03-06T14:20:35.294Z,98830.27
2023-03-06T14:23:21.935Z,98826.86
2023-03-06T14:26:17.439Z,98825.17
2023-03-06T14:28:57.279Z,98824.54
2023-03-06T14:31:30.439Z,98824.07
2023-03-06T14:33:59.552Z,98822.36
2023-03-06T14:36:44.391Z,98822.05
2023-03-06T14:39:43.219Z,98819.17
2023-03-06T14:42:53.417Z,98818.64
2023-03-06T14:45:21.423Z,98820.15
2023-03-06T14:47:53.297Z,98818.42
2023-03-06T14:50:28.647Z,98819.27
2023-03-06T14:53:00.443Z,98814.28
2023-03-06T14:55:32.819Z,98815.11
2023-03-06T14:58:11.397Z,98816.96
2023-03-06T15:00:46.427Z,98815.39
2023-03-06T15:03:41.768Z,98811.93
2023-03-06T15:06:15.330Z,98814.50
2023-03-06T15:08:45.958Z,98815.70
2023-03-06T15:11:14.445Z,98816.05
2023-03-06T15:13:42.777Z,98813.98
2023-03-06T15:16:13.587Z,98812.62
2023-03-06T15:19:02.661Z,98812.76
2023-03-06T15:21:36.658Z,98811.38
2023-03-06T15:24:40.222Z,98810.86
2023-03-06T15:27:18.145Z,98814.12
2023-03-06T15:29:45.893Z,98813.29
2023-03-06T15:32:15.044Z,98810.92
2023-03-06T15:34:42.780Z,98814.88
2023-03-06T15:37:27.795Z,98813.68
2023-03-06T15:40:09.458Z,98811.97
2023-03-06T15:42:37.445Z,98815.23
2023-03-06T15:45:26.924Z,98811.81
2023-03-06T15:47:55.800Z,98814.41
2023-03-06T15:50:26.059Z,98810.66
2023-03-06T15:52:54.049Z,98809.64
2023-03-06T15:55:25.975Z,98805.02
2023-03-06T15:57:56.747Z,98808.44
2023-03-06T16:00:28.731Z,98804.33
2023-03-06T16:02:58.309Z,98804.85
2023-03-06T16:05:27.387Z,98805.36
2023-03-06T16:07:55.911Z,98803.77
2023-03-06T16:10:27.057Z,98806.17
2023-03-06T16:12:59.592Z,98806.02
2023-03-06T16:15:30.580Z,98809.95
2023-03-06T16:17:59.730Z,98809.09
2023-03-06T16:20:28.925Z,98806.86
2023-03-06T16:22:56.916Z,98807.89
2023-03-06T16:25:27.723Z,98807.42
2023-03-06T16:27:57.958Z,98806.25
2023-03-06T16:30:29.165Z,98805.77
2023-03-06T16:32:57.700Z,98801.30
2023-03-06T16:35:26.016Z,98800.09
2023-03-06T16:37:54.051Z,98797.86
2023-03-06T16:40:22.176Z,98797.34
2023-03-06T16:42:52.410Z,98800.06
2023-03-06T16:45:22.065Z,98791.98
2023-03-06T16:47:50.224Z,98793.39
2023-03-06T16:50:40.309Z,98795.63
2023-03-06T16:53:08.078Z,98791.88
2023-03-06T16:55:35.771Z,98793.45
2023-03-06T16:58:03.691Z,98791.35
2023-03-06T17:00:33.091Z,98795.79
2023-03-06T17:03:02.282Z,98794.06
2023-03-06T17:05:34.192Z,98794.73
2023-03-06T17:08:03.506Z,98795.07
2023-03-06T17:10:31.335Z,98796.40
2023-03-06T17:12:58.942Z,98795.50
2023-03-06T17:15:26.654Z,98798.21
2023-03-06T17:17:56.828Z,98797.49
2023-03-06T17:20:24.637Z,98800.23
2023-03-06T17:22:52.291Z,98799.04
2023-03-06T17:25:19.966Z,98800.92
2023-03-06T17:27:47.573Z,98798.52
2023-03-06T17:30:15.752Z,98797.13
2023-03-06T17:32:43.407Z,98795.72
2023-03-06T17:35:11.337Z,98795.70
2023-03-06T17:37:39.107Z,98796.71
2023-03-06T17:40:10.551Z,98789.70
2023-03-06T17:42:38.266Z,98795.70
2023-03-06T17:45:09.168Z,98792.44
2023-03-06T17:47:38.021Z,98795.70
2023-03-06T17:50:07.334Z,98793.17
2023-03-06T17:52:35.091Z,98793.38
2023-03-06T17:55:03.546Z,98793.55
2023-03-06T17:57:31.274Z,98791.16
2023-03-06T17:59:59.166Z,98794.63
2023-03-06T18:02:28.313Z,98796.02
2023-03-06T18:04:58.258Z,98792.95
2023-03-06T18:07:26.600Z,98792.13
2023-03-06T18:09:54.316Z,98792.66
2023-03-06T18:12:22.363Z,98791.85
2023-03-06T18:14:50.666Z,98791.54
2023-03-06T18:17:18.685Z,98794.81
2023-03-06T18:19:46.460Z,98791.56
2023-03-06T18:22:14.146Z,98794.49
2023-03-06T18:24:41.856Z,98793.67
2023-03-06T18:27:09.728Z,98794.88
2023-03-06T18:29:37.510Z,98794.23
2023-03-06T18:32:05.533Z,98794.77
2023-03-06T18:34:33.270Z,98798.05
2023-03-06T18:37:01.232Z,98793.64
2023-03-06T18:39:28.956Z,98795.89
2023-03-06T18:41:56.770Z,98797.80
2023-03-06T18:44:24.536Z,98795.74
2023-03-06T18:46:52.425Z,98797.45
2023-03-06T18:49:20.347Z,98795.55
2023-03-06T18:51:50.350Z,98796.05
2023-03-06T18:54:18.472Z,98794.85
2023-03-06T18:56:46.394Z,98797.77
2023-03-06T18:59:17.604Z,98796.90
2023-03-06T19:01:47.687Z,98795.92
2023-03-06T19:04:15.879Z,98796.32
2023-03-06T19:06:43.999Z,98797.17
2023-03-06T19:09:12.050Z,98795.66
2023-03-06T19:11:40.384Z,98794.46
2023-03-06T19:14:08.508Z,98791.77
2023-03-06T19:16:36.380Z,98791.61
2023-03-06T19:19:04.161Z,98791.61
2023-03-06T19:21:31.959Z,98788.38
2023-03-06T19:24:01.697Z,98791.27
2023-03-06T19:26:29.630Z,98789.06
2023-03-06T19:28:57.425Z,98790.27
2023-03-06T19:31:27.476Z,98787.16
2023-03-06T19:33:56.729Z,98787.38
2023-03-06T19:36:28.642Z,98787.04
2023-03-06T19:38:58.558Z,98786.55
2023-03-06T19:41:27.206Z,98788.77
2023-03-06T19:43:58.307Z,98790.20
2023-03-06T19:46:26.774Z,98791.94
2023-03-06T19:49:00.630Z,98792.82
2023-03-06T19:51:29.434Z,98796.27
2023-03-06T19:53:58.807Z,98799.37
2023-03-06T19:56:29.284Z,98798.20
2023-03-06T19:58:57.336Z,98801.81
2023-03-06T20:01:27.418Z,98804.73
2023-03-06T20:03:59.348Z,98804.58
2023-03-06T20:06:33.457Z,98810.75
2023-03-06T20:09:04.138Z,98812.98
2023-03-06T20:11:32.366Z,98815.23
2023-03-06T20:14:02.791Z,98815.91
2023-03-06T20:16:31.645Z,98817.30
2023-03-06T20:19:00.928Z,98818.52
2023-03-06T20:21:31.759Z,98820.59
2023-03-06T20:23:59.834Z,98820.97
2023-03-06T20:26:28.993Z,98824.09
2023-03-06T20:28:57.477Z,98825.14
2023-03-06T20:31:28.437Z,98830.11
2023-03-06T20:33:58.224Z,98830.29
2023-03-06T20:36:29.474Z,98830.64
2023-03-06T20:39:00.388Z,98827.73
2023-03-06T20:41:29.743Z,98828.95
2023-03-06T20:44:02.336Z,98830.69
2023-03-06T20:46:30.758Z,98833.78
2023-03-06T20:48:59.368Z,98834.13
2023-03-06T20:51:32.622Z,98834.14
2023-03-06T20:54:02.227Z,98836.52
2023-03-06T20:56:33.026Z,98835.16
2023-03-06T20:59:00.865Z,98836.70
2023-03-06T21:01:34.119Z,98832.79
2023-03-06T21:04:04.409Z,98833.30
2023-03-06T21:06:33.208Z,98831.77
2023-03-06T21:09:02.161Z,98827.49
2023-03-06T21:11:30.167Z,98829.55
2023-03-06T21:13:58.084Z,98831.93
2023-03-06T21:16:27.338Z,98834.00
2023-03-06T21:18:55.891Z,98832.81
2023-03-06T21:21:32.838Z,98832.11
2023-03-06T21:24:02.366Z,98831.11
2023-03-06T21:26:33.573Z,98833.16
2023-03-06T21:29:02.152Z,98830.27
2023-03-06T21:31:30.734Z,98834.55
2023-03-06T21:33:58.907Z,98836.43
2023-03-06T21:36:27.111Z,98836.27
2023-03-06T21:38:55.367Z,98838.98
2023-03-06T21:41:25.747Z,98837.80
2023-03-06T21:43:58.308Z,98834.05
2023-03-06T21:46:27.019Z,98834.56
2023-03-06T21:48:55.081Z,98840.72
2023-03-06T21:51:24.955Z,98840.72
2023-03-06T21:53:53.840Z,98840.38
2023-03-06T21:56:25.144Z,98842.59
2023-03-06T21:58:53.561Z,98844.29
2023-03-06T22:01:28.329Z,98846.67
2023-03-06T22:03:58.268Z,98844.28
2023-03-06T22:06:27.358Z,98844.77
2023-03-06T22:08:56.509Z,98842.73
2023-03-06T22:11:26.298Z,98844.61
2023-03-06T22:13:54.021Z,98842.89
2023-03-06T22:16:21.668Z,98839.13
2023-03-06T22:18:51.444Z,98842.52
2023-03-06T22:21:21.072Z,98838.78
2023-03-06T22:23:50.613Z,98837.23
2023-03-06T22:26:18.537Z,98839.63
2023-03-06T22:28:46.547Z,98838.77
2023-03-06T22:31:23.928Z,98840.11
2023-03-06T22:33:56.631Z,98840.29
2023-03-06T22:36:25.034Z,98839.77
2023-03-06T22:38:58.671Z,98839.58
2023-03-06T22:41:27.483Z,98839.23
2023-03-06T22:43:57.054Z,98839.21
2023-03-06T22:46:25.091Z,98836.64
2023-03-06T22:48:52.873Z,98838.16
2023-03-06T22:51:21.180Z,98842.58
2023-03-06T22:53:49.322Z,98843.60
2023-03-06T22:56:19.848Z,98847.50
2023-03-06T22:58:48.453Z,98846.13
2023-03-06T23:01:17.887Z,98847.13
2023-03-06T23:03:51.053Z,98846.77
2023-03-06T23:06:23.593Z,98842.48
2023-03-06T23:09:02.045Z,98842.80
2023-03-06T23:11:30.708Z,98841.42
2023-03-06T23:13:58.986Z,98841.74
2023-03-06T23:16:26.732Z,98839.17
2023-03-06T23:18:54.824Z,98837.63
2023-03-06T23:21:23.312Z,98836.95
2023-03-06T23:23:56.306Z,98835.05
2023-03-06T23:26:26.511Z,98836.41
2023-03-06T23:28:54.503Z,98835.71
2023-03-06T23:31:28.630Z,98835.70
2023-03-06T23:33:58.560Z,98835.35
2023-03-06T23:36:27.039Z,98838.92
2023-03-06T23:38:55.091Z,98840.96
2023-03-06T23:41:23.842Z,98843.15
2023-03-06T23:43:54.078Z,98845.89
2023-03-06T23:46:23.012Z,98846.04
2023-03-06T23:48:50.706Z,98847.70
2023-03-06T23:51:20.637Z,98846.15
2023-03-06T23:53:56.975Z,98843.42
2023-03-06T23:56:26.562Z,98845.45
2023-03-06T23:58:54.408Z,98843.71
